KMVL/MVL METAR and TAF weather

Enter ICAO airport designator
Station Type Date Time Source
KMVL METAR 2019/11/15 04:54 UTC NOAA

KMVL 150454Z AUTO 00000KT 10SM OVC065 M04/M06 A3016 RMK AO2 SLP225 T10391056 410331178


Station Type Date Time Source
KMVL Decoded METAR 2019/11/15 04:54 UTC NOAA

MORRISVILLE STOWE STATE AIRPORT , VT, United States (KMVL) 44-32N 72-37W 223M
Nov 14, 2019 - 11:54 PM EST / 2019.11.15 0454 UTC
Wind: Calm:0
Visibility: 10 mile(s):0
Sky conditions: overcast
Temperature: 25.0 F (-3.9 C)
Dew Point: 21.9 F (-5.6 C)
Relative Humidity: 87%
Pressure (altimeter): 30.16 in. Hg (1021 hPa)
ob: KMVL 150454Z AUTO 00000KT 10SM OVC065 M04/M06 A3016 RMK AO2 SLP225 T10391056 410331178
cycle: 5

Station Type Date Time Source
KMVL TAF UTC NOAA

Error!

Example: see airport list